createdAt,value
2023-02-08T00:01:26.394Z,28.55
2023-02-08T00:03:53.142Z,25.60
2023-02-08T00:06:19.837Z,36.55
2023-02-08T00:08:46.727Z,30.42
2023-02-08T00:11:13.372Z,28.27
2023-02-08T00:13:42.265Z,34.75
2023-02-08T00:16:09.512Z,38.47
2023-02-08T00:18:35.998Z,36.83
2023-02-08T00:21:07.749Z,41.90
2023-02-08T00:23:34.418Z,46.90
2023-02-08T00:26:00.836Z,46.22
2023-02-08T00:28:27.330Z,50.45
2023-02-08T00:30:53.959Z,53.30
2023-02-08T00:33:20.754Z,61.03
2023-02-08T00:35:47.242Z,63.45
2023-02-08T00:38:13.746Z,67.82
2023-02-08T00:40:40.562Z,59.67
2023-02-08T00:43:07.334Z,50.53
2023-02-08T00:45:34.077Z,38.45
2023-02-08T00:48:00.622Z,37.33
2023-02-08T00:50:27.125Z,45.25
2023-02-08T00:52:53.554Z,48.38
2023-02-08T00:55:19.954Z,42.78
2023-02-08T00:57:46.375Z,39.03
2023-02-08T01:00:13.252Z,39.80
2023-02-08T01:02:39.707Z,45.17
2023-02-08T01:05:06.453Z,43.80
2023-02-08T01:07:32.932Z,45.75
2023-02-08T01:10:00.595Z,45.92
2023-02-08T01:12:27.103Z,49.33
2023-02-08T01:14:53.510Z,41.47
2023-02-08T01:17:19.895Z,44.58
2023-02-08T01:19:46.392Z,45.15
2023-02-08T01:22:12.876Z,35.55
2023-02-08T01:24:39.302Z,45.47
2023-02-08T01:27:05.707Z,40.40
2023-02-08T01:29:32.137Z,38.90
2023-02-08T01:31:58.546Z,37.63
2023-02-08T01:34:24.950Z,43.30
2023-02-08T01:36:51.401Z,41.88
2023-02-08T01:39:17.850Z,37.65
2023-02-08T01:41:46.494Z,46.08
2023-02-08T01:44:13.468Z,45.00
2023-02-08T01:46:42.265Z,40.50
2023-02-08T01:49:14.736Z,38.83
2023-02-08T01:51:55.310Z,34.30
2023-02-08T01:54:25.022Z,34.92
2023-02-08T01:56:51.822Z,32.72
2023-02-08T01:59:24.040Z,36.58
2023-02-08T02:01:54.533Z,40.50
2023-02-08T02:04:21.914Z,34.50
2023-02-08T02:06:54.527Z,29.75
2023-02-08T02:09:26.259Z,29.65
2023-02-08T02:11:54.567Z,34.08
2023-02-08T02:14:22.279Z,32.20
2023-02-08T02:16:48.897Z,36.97
2023-02-08T02:19:31.254Z,39.10
2023-02-08T02:22:30.056Z,31.45
2023-02-08T02:25:41.540Z,28.08
2023-02-08T02:28:45.626Z,30.83
2023-02-08T02:31:15.062Z,35.97
2023-02-08T02:33:58.491Z,37.28
2023-02-08T02:36:37.016Z,31.85
2023-02-08T02:39:20.969Z,32.50
2023-02-08T02:42:19.694Z,30.23
2023-02-08T02:44:58.300Z,28.38
2023-02-08T02:48:10.302Z,31.40
2023-02-08T02:51:15.385Z,38.67
2023-02-08T02:53:56.016Z,34.53
2023-02-08T02:56:27.604Z,39.50
2023-02-08T02:58:59.062Z,29.90
2023-02-08T03:01:26.130Z,35.13
2023-02-08T03:03:54.447Z,29.05
2023-02-08T03:06:36.118Z,33.47
2023-02-08T03:09:30.821Z,40.60
2023-02-08T03:12:11.185Z,41.95
2023-02-08T03:14:46.458Z,30.58
2023-02-08T03:17:31.443Z,33.65
2023-02-08T03:20:24.028Z,36.72
2023-02-08T03:22:59.444Z,36.63
2023-02-08T03:25:42.691Z,35.15
2023-02-08T03:28:28.713Z,32.97
2023-02-08T03:31:11.537Z,34.70
2023-02-08T03:33:58.133Z,31.52
2023-02-08T03:36:47.708Z,34.15
2023-02-08T03:39:20.977Z,41.63
2023-02-08T03:41:51.523Z,28.90
2023-02-08T03:44:23.596Z,37.53
2023-02-08T03:46:54.993Z,33.28
2023-02-08T03:49:27.662Z,35.85
2023-02-08T03:51:57.635Z,38.95
2023-02-08T03:54:28.131Z,28.65
2023-02-08T03:57:13.573Z,29.25
2023-02-08T03:59:43.572Z,35.00
2023-02-08T04:02:16.875Z,36.45
2023-02-08T04:04:46.965Z,38.78
2023-02-08T04:07:14.063Z,36.13
2023-02-08T04:09:40.522Z,35.33
2023-02-08T04:12:07.421Z,30.80
2023-02-08T04:14:33.871Z,34.35
2023-02-08T04:17:00.313Z,36.25
2023-02-08T04:19:26.758Z,34.80
2023-02-08T04:21:53.177Z,34.85
2023-02-08T04:24:20.275Z,27.90
2023-02-08T04:26:47.225Z,41.63
2023-02-08T04:29:13.819Z,38.30
2023-02-08T04:31:40.406Z,32.38
2023-02-08T04:34:07.036Z,31.30
2023-02-08T04:36:33.500Z,36.22
2023-02-08T04:38:59.933Z,35.53
2023-02-08T04:41:26.356Z,35.42
2023-02-08T04:43:52.831Z,43.80
2023-02-08T04:46:19.333Z,38.47
2023-02-08T04:48:45.766Z,49.65
2023-02-08T04:51:12.175Z,90.88
2023-02-08T04:53:38.624Z,91.97
2023-02-08T04:56:05.297Z,62.47
2023-02-08T04:58:31.727Z,47.47
2023-02-08T05:00:58.157Z,79.18
2023-02-08T05:03:24.690Z,57.22
2023-02-08T05:05:58.629Z,38.05
2023-02-08T05:08:25.264Z,32.55
2023-02-08T05:10:51.777Z,40.03
2023-02-08T05:13:18.307Z,34.28
2023-02-08T05:15:44.759Z,33.95
2023-02-08T05:18:11.180Z,32.88
2023-02-08T05:20:37.590Z,33.97
2023-02-08T05:23:04.084Z,36.47
2023-02-08T05:25:30.497Z,30.48
2023-02-08T05:27:56.998Z,33.42
2023-02-08T05:30:23.439Z,42.50
2023-02-08T05:32:49.866Z,31.10
2023-02-08T05:35:16.408Z,36.60
2023-02-08T05:37:42.803Z,33.72
2023-02-08T05:40:09.978Z,30.35
2023-02-08T05:42:36.531Z,43.47
2023-02-08T05:45:03.026Z,34.47
2023-02-08T05:47:29.401Z,37.08
2023-02-08T05:49:55.795Z,30.83
2023-02-08T05:52:22.240Z,36.20
2023-02-08T05:54:48.634Z,39.08
2023-02-08T05:57:15.065Z,29.90
2023-02-08T05:59:41.455Z,42.22
2023-02-08T06:02:07.870Z,38.17
2023-02-08T06:04:34.326Z,43.33
2023-02-08T06:07:00.705Z,35.88
2023-02-08T06:09:27.107Z,42.00
2023-02-08T06:11:53.541Z,34.85
2023-02-08T06:17:08.628Z,37.00
2023-02-08T06:19:46.615Z,44.08
2023-02-08T06:22:13.152Z,38.95
2023-02-08T06:24:39.555Z,32.20
2023-02-08T06:27:06.208Z,41.47
2023-02-08T06:29:32.649Z,33.78
2023-02-08T06:31:59.203Z,34.95
2023-02-08T06:34:25.678Z,42.80
2023-02-08T06:36:52.098Z,31.73
2023-02-08T06:39:18.523Z,36.35
2023-02-08T06:41:45.001Z,42.33
2023-02-08T06:44:11.515Z,49.53
2023-02-08T06:46:37.960Z,43.97
2023-02-08T06:49:04.395Z,44.78
2023-02-08T06:51:30.898Z,35.75
2023-02-08T06:53:57.353Z,40.42
2023-02-08T06:56:23.789Z,39.28
2023-02-08T06:58:50.392Z,44.63
2023-02-08T07:01:16.833Z,35.90
2023-02-08T07:03:43.310Z,44.97
2023-02-08T07:06:17.625Z,36.85
2023-02-08T07:08:44.837Z,39.10
2023-02-08T07:11:14.313Z,47.10
2023-02-08T07:13:40.767Z,46.42
2023-02-08T07:16:09.325Z,44.72
2023-02-08T07:18:37.017Z,41.53
2023-02-08T07:21:03.870Z,47.67
2023-02-08T07:23:30.505Z,48.22
2023-02-08T07:26:02.050Z,56.38
2023-02-08T07:28:29.151Z,48.60
2023-02-08T07:31:05.185Z,46.88
2023-02-08T07:33:31.686Z,58.03
2023-02-08T07:35:58.343Z,50.38
2023-02-08T07:38:24.821Z,48.80
2023-02-08T07:40:51.304Z,51.10
2023-02-08T07:43:17.739Z,60.03
2023-02-08T07:45:44.434Z,47.35
2023-02-08T07:48:10.823Z,46.08
2023-02-08T07:50:37.361Z,50.83
2023-02-08T07:53:03.783Z,41.05
2023-02-08T07:55:32.665Z,38.65
2023-02-08T07:57:59.161Z,42.40
2023-02-08T08:00:26.926Z,46.00
2023-02-08T08:02:53.972Z,46.20
2023-02-08T08:05:21.640Z,44.17
2023-02-08T08:07:48.031Z,39.25
2023-02-08T08:10:14.548Z,47.10
2023-02-08T08:12:41.846Z,49.35
2023-02-08T08:15:08.504Z,51.97
2023-02-08T08:17:53.149Z,48.13
2023-02-08T08:20:19.618Z,44.85
2023-02-08T08:22:46.988Z,44.13
2023-02-08T08:25:14.055Z,44.10
2023-02-08T08:27:41.091Z,41.88
2023-02-08T08:30:13.530Z,45.03
2023-02-08T08:32:40.254Z,49.35
2023-02-08T08:35:07.810Z,57.38
2023-02-08T08:37:35.147Z,37.97
2023-02-08T08:40:01.962Z,39.60
2023-02-08T08:42:28.442Z,40.53
2023-02-08T08:44:55.079Z,40.47
2023-02-08T08:47:21.717Z,41.45
2023-02-08T08:49:48.334Z,45.85
2023-02-08T08:52:17.692Z,47.97
2023-02-08T08:54:44.162Z,35.78
2023-02-08T08:57:10.628Z,43.13
2023-02-08T08:59:37.024Z,43.30
2023-02-08T09:02:07.146Z,45.85
2023-02-08T09:04:37.111Z,41.50
2023-02-08T09:07:03.528Z,49.72
2023-02-08T09:09:30.050Z,45.20
2023-02-08T09:11:56.443Z,43.13
2023-02-08T09:14:22.946Z,42.47
2023-02-08T09:16:52.256Z,55.05
2023-02-08T09:19:19.088Z,40.75
2023-02-08T09:21:45.757Z,48.53
2023-02-08T09:24:14.974Z,35.92
2023-02-08T09:26:41.457Z,33.53
2023-02-08T09:29:08.518Z,40.97
2023-02-08T09:31:37.898Z,27.20
2023-02-08T09:34:06.141Z,33.03
2023-02-08T09:36:39.660Z,34.20
2023-02-08T09:39:14.417Z,27.05
2023-02-08T09:41:52.855Z,24.67
2023-02-08T09:44:37.457Z,30.13
2023-02-08T09:47:14.094Z,22.25
2023-02-08T09:49:58.692Z,20.95
2023-02-08T09:52:34.556Z,24.83
2023-02-08T09:55:10.652Z,19.23
2023-02-08T09:57:38.481Z,23.00
2023-02-08T10:00:12.821Z,23.58
2023-02-08T10:02:42.950Z,33.65
2023-02-08T10:05:14.754Z,22.35
2023-02-08T10:07:43.010Z,19.23
2023-02-08T10:10:31.308Z,21.48
2023-02-08T10:13:14.050Z,21.00
2023-02-08T10:16:11.468Z,23.42
2023-02-08T10:18:59.708Z,18.58
2023-02-08T10:21:48.177Z,16.10
2023-02-08T10:24:24.828Z,26.63
2023-02-08T10:27:09.675Z,20.15
2023-02-08T10:29:45.191Z,23.42
2023-02-08T10:32:18.800Z,19.75
2023-02-08T10:34:54.338Z,19.95
2023-02-08T10:37:30.098Z,24.13
2023-02-08T10:40:00.172Z,19.65
2023-02-08T10:42:28.669Z,18.20
2023-02-08T10:45:22.458Z,21.17
2023-02-08T10:47:54.839Z,19.02
2023-02-08T10:50:30.648Z,16.93
2023-02-08T10:52:57.250Z,24.85
2023-02-08T10:55:23.891Z,18.92
2023-02-08T10:57:53.990Z,21.80
2023-02-08T11:00:26.699Z,21.30
2023-02-08T11:02:55.269Z,24.40
2023-02-08T11:05:33.566Z,19.60
2023-02-08T11:08:16.040Z,20.08
2023-02-08T11:11:05.059Z,18.80
2023-02-08T11:13:38.620Z,23.27
2023-02-08T11:16:09.344Z,20.02
2023-02-08T11:18:39.854Z,21.43
2023-02-08T11:21:11.188Z,22.00
2023-02-08T11:23:41.480Z,23.00
2023-02-08T11:26:36.492Z,18.70
2023-02-08T11:29:18.759Z,24.98
2023-02-08T11:32:26.675Z,18.33
2023-02-08T11:35:13.262Z,20.27
2023-02-08T11:37:47.484Z,21.92
2023-02-08T11:40:21.308Z,20.42
2023-02-08T11:42:47.967Z,17.73
2023-02-08T11:45:22.448Z,19.75
2023-02-08T11:47:50.047Z,22.08
2023-02-08T11:50:31.834Z,15.23
2023-02-08T11:53:03.438Z,19.52
2023-02-08T11:58:13.179Z,18.00
2023-02-08T12:00:40.890Z,15.93
2023-02-08T12:03:38.744Z,23.58
2023-02-08T12:06:17.901Z,20.00
2023-02-08T12:08:53.215Z,21.35
2023-02-08T12:11:37.411Z,18.05
2023-02-08T12:14:48.289Z,21.42
2023-02-08T12:17:39.952Z,19.60
2023-02-08T12:20:28.341Z,21.88
2023-02-08T12:23:16.675Z,20.83
2023-02-08T12:26:20.053Z,21.17
2023-02-08T12:29:12.959Z,19.42
2023-02-08T12:31:57.664Z,20.60
2023-02-08T12:34:55.043Z,15.63
2023-02-08T12:37:52.443Z,22.13
2023-02-08T12:40:55.155Z,20.50
2023-02-08T12:43:27.757Z,16.52
2023-02-08T12:46:16.709Z,17.50
2023-02-08T12:49:13.831Z,19.45
2023-02-08T12:52:11.271Z,21.05
2023-02-08T12:54:42.213Z,18.73
2023-02-08T12:57:14.274Z,23.05
2023-02-08T12:59:47.210Z,21.77
2023-02-08T13:02:44.538Z,20.45
2023-02-08T13:05:19.296Z,16.23
2023-02-08T13:07:55.329Z,14.95
2023-02-08T13:10:51.346Z,18.90
2023-02-08T13:13:28.287Z,19.30
2023-02-08T13:16:10.354Z,19.65
2023-02-08T13:19:11.906Z,21.98
2023-02-08T13:21:43.108Z,16.83
2023-02-08T13:24:24.766Z,16.95
2023-02-08T13:29:19.699Z,20.08
2023-02-08T13:32:15.074Z,22.25
2023-02-08T13:34:49.089Z,16.85
2023-02-08T13:37:30.950Z,19.42
2023-02-08T13:40:02.500Z,17.85
2023-02-08T13:42:38.097Z,19.35
2023-02-08T13:45:06.333Z,23.65
2023-02-08T13:47:38.962Z,19.40
2023-02-08T13:50:46.149Z,18.42
2023-02-08T13:53:14.789Z,24.88
2023-02-08T13:56:06.227Z,21.15
2023-02-08T13:59:00.976Z,22.15
2023-02-08T14:01:33.149Z,25.67
2023-02-08T14:04:09.793Z,21.27
2023-02-08T14:06:58.722Z,22.35
2023-02-08T14:09:28.703Z,18.95
2023-02-08T14:12:11.166Z,30.83
2023-02-08T14:14:38.790Z,27.02
2023-02-08T14:17:05.151Z,17.15
2023-02-08T14:19:33.522Z,25.75
2023-02-08T14:22:11.418Z,14.93
2023-02-08T14:25:00.502Z,22.30
2023-02-08T14:27:42.171Z,16.40
2023-02-08T14:32:41.334Z,15.93
2023-02-08T14:35:13.825Z,22.23
2023-02-08T14:37:42.548Z,24.20
2023-02-08T14:40:24.383Z,20.48
2023-02-08T14:42:57.400Z,25.25
2023-02-08T14:45:44.612Z,17.38
2023-02-08T14:48:26.866Z,19.17
2023-02-08T14:51:08.947Z,19.88
2023-02-08T14:53:50.912Z,15.85
2023-02-08T14:56:28.160Z,16.20
2023-02-08T14:59:13.382Z,20.83
2023-02-08T15:01:47.949Z,17.08
2023-02-08T15:04:18.279Z,20.60
2023-02-08T15:06:53.984Z,17.17
2023-02-08T15:09:29.542Z,22.23
2023-02-08T15:11:59.549Z,16.85
2023-02-08T15:14:26.972Z,14.35
2023-02-08T15:16:55.442Z,11.20
2023-02-08T15:19:26.048Z,10.93
2023-02-08T15:21:52.598Z,13.45
2023-02-08T15:24:24.201Z,12.73
2023-02-08T15:29:42.967Z,14.45
2023-02-08T15:32:16.444Z,15.15
2023-02-08T15:34:45.303Z,14.55
2023-02-08T15:37:19.388Z,15.45
2023-02-08T15:39:50.418Z,20.98
2023-02-08T15:42:19.538Z,17.85
2023-02-08T15:44:47.110Z,14.43
2023-02-08T15:47:18.306Z,14.13
2023-02-08T15:49:49.795Z,12.15
2023-02-08T15:54:48.359Z,25.15
2023-02-08T15:57:44.611Z,15.15
2023-02-08T16:00:16.635Z,16.13
2023-02-08T16:02:44.089Z,16.05
2023-02-08T16:05:19.382Z,12.48
2023-02-08T16:07:47.588Z,19.25
2023-02-08T16:10:24.218Z,16.38
2023-02-08T16:12:57.406Z,16.15
2023-02-08T16:15:50.532Z,21.83
2023-02-08T16:18:49.946Z,17.30
2023-02-08T16:21:32.836Z,23.98
2023-02-08T16:24:14.193Z,12.65
2023-02-08T16:26:45.354Z,22.52
2023-02-08T16:29:25.904Z,19.60
2023-02-08T16:32:03.586Z,41.05
2023-02-08T16:34:35.538Z,20.73
2023-02-08T16:37:04.650Z,24.40
2023-02-08T16:39:50.027Z,26.85
2023-02-08T16:42:21.354Z,18.98
2023-02-08T16:45:12.984Z,25.38
2023-02-08T16:47:54.561Z,20.88
2023-02-08T16:50:23.885Z,20.85
2023-02-08T16:53:01.684Z,20.27
2023-02-08T16:55:31.640Z,23.92
2023-02-08T16:57:59.020Z,20.00
2023-02-08T17:00:30.003Z,17.10
2023-02-08T17:02:56.927Z,22.60
2023-02-08T17:05:29.471Z,18.10
2023-02-08T17:07:56.129Z,22.70
2023-02-08T17:10:32.672Z,25.88
2023-02-08T17:13:17.509Z,18.45
2023-02-08T17:15:48.541Z,33.47
2023-02-08T17:18:15.129Z,29.13
2023-02-08T17:20:42.151Z,22.58
2023-02-08T17:23:09.919Z,23.60
2023-02-08T17:25:36.749Z,27.00
2023-02-08T17:28:06.886Z,23.88
2023-02-08T17:30:36.827Z,22.67
2023-02-08T17:33:03.942Z,24.05
2023-02-08T17:35:30.565Z,23.75
2023-02-08T17:37:58.605Z,33.15
2023-02-08T17:40:29.577Z,34.42
2023-02-08T17:42:55.978Z,38.75
2023-02-08T17:45:22.828Z,32.50
2023-02-08T17:47:49.302Z,30.58
2023-02-08T17:50:18.146Z,38.28
2023-02-08T17:52:45.714Z,34.83
2023-02-08T17:55:15.245Z,32.05
2023-02-08T17:57:43.256Z,44.90
2023-02-08T18:00:20.339Z,42.72
2023-02-08T18:02:49.956Z,40.10
2023-02-08T18:05:18.624Z,44.05
2023-02-08T18:07:45.585Z,42.63
2023-02-08T18:10:14.318Z,25.70
2023-02-08T18:12:41.062Z,45.63
2023-02-08T18:15:10.068Z,28.13
2023-02-08T18:17:36.503Z,30.10
2023-02-08T18:20:03.601Z,31.02
2023-02-08T18:22:30.177Z,34.08
2023-02-08T18:24:56.664Z,44.22
2023-02-08T18:27:25.014Z,34.22
2023-02-08T18:29:51.782Z,32.25
2023-02-08T18:32:20.182Z,25.55
2023-02-08T18:34:46.907Z,32.35
2023-02-08T18:37:13.559Z,28.23
2023-02-08T18:39:40.049Z,34.28
2023-02-08T18:42:06.504Z,32.63
2023-02-08T18:44:36.646Z,34.50
2023-02-08T18:47:03.840Z,33.50
2023-02-08T18:49:31.203Z,35.47
2023-02-08T18:51:58.140Z,34.65
2023-02-08T18:54:24.547Z,28.13
2023-02-08T18:56:53.911Z,32.00
2023-02-08T18:59:20.445Z,26.58
2023-02-08T19:01:47.045Z,33.50
2023-02-08T19:04:13.521Z,25.65
2023-02-08T19:06:39.982Z,24.15
2023-02-08T19:09:07.670Z,28.05
2023-02-08T19:11:37.296Z,33.05
2023-02-08T19:14:10.206Z,33.83
2023-02-08T19:16:38.176Z,26.95
2023-02-08T19:19:06.613Z,24.55
2023-02-08T19:21:34.655Z,24.15
2023-02-08T19:24:02.222Z,43.25
2023-02-08T19:26:31.078Z,28.80
2023-02-08T19:28:59.337Z,24.33
2023-02-08T19:31:27.451Z,27.48
2023-02-08T19:33:58.502Z,28.73
2023-02-08T19:36:28.732Z,24.30
2023-02-08T19:38:56.229Z,26.15
2023-02-08T19:41:28.745Z,28.20
2023-02-08T19:43:55.362Z,26.98
2023-02-08T19:46:23.663Z,27.17
2023-02-08T19:48:52.373Z,21.42
2023-02-08T19:51:19.552Z,26.10
2023-02-08T19:53:46.105Z,22.92
2023-02-08T19:56:16.004Z,28.65
2023-02-08T19:58:43.181Z,30.35
2023-02-08T20:01:19.412Z,26.52
2023-02-08T20:03:47.215Z,23.98
2023-02-08T20:06:25.463Z,22.23
2023-02-08T20:08:52.189Z,22.13
2023-02-08T20:11:27.147Z,27.45
2023-02-08T20:13:55.255Z,27.60
2023-02-08T20:16:22.882Z,22.70
2023-02-08T20:18:50.037Z,24.75
2023-02-08T20:21:17.395Z,18.45
2023-02-08T20:23:43.829Z,14.88
2023-02-08T20:26:27.724Z,18.95
2023-02-08T20:28:58.916Z,23.45
2023-02-08T20:31:31.303Z,19.58
2023-02-08T20:33:59.907Z,22.33
2023-02-08T20:36:29.247Z,15.98
2023-02-08T20:38:57.014Z,13.25
2023-02-08T20:41:25.717Z,14.90
2023-02-08T20:43:53.177Z,16.33
2023-02-08T20:46:25.652Z,24.63
2023-02-08T20:48:53.227Z,18.35
2023-02-08T20:51:23.108Z,15.07
2023-02-08T20:53:51.506Z,14.77
2023-02-08T20:56:24.474Z,10.00
2023-02-08T20:58:51.765Z,16.10
2023-02-08T21:01:26.886Z,15.20
2023-02-08T21:03:58.201Z,9.93
2023-02-08T21:06:31.143Z,17.40
2023-02-08T21:08:59.822Z,14.13
2023-02-08T21:11:29.474Z,11.93
2023-02-08T21:13:56.906Z,11.27
2023-02-08T21:16:23.801Z,10.43
2023-02-08T21:18:50.432Z,11.27
2023-02-08T21:21:17.520Z,10.45
2023-02-08T21:23:44.563Z,12.25
2023-02-08T21:26:14.701Z,10.73
2023-02-08T21:28:41.495Z,13.60
2023-02-08T21:31:12.053Z,11.63
2023-02-08T21:33:38.514Z,11.18
2023-02-08T21:36:10.209Z,9.30
2023-02-08T21:38:36.851Z,11.23
2023-02-08T21:41:10.867Z,11.85
2023-02-08T21:43:37.748Z,8.95
2023-02-08T21:46:08.752Z,11.68
2023-02-08T21:48:55.749Z,13.07
2023-02-08T21:51:42.665Z,10.27
2023-02-08T21:54:45.139Z,6.72
2023-02-08T21:57:22.681Z,10.80
2023-02-08T21:59:51.527Z,11.70
2023-02-08T22:02:27.835Z,9.00
2023-02-08T22:05:18.229Z,6.70
2023-02-08T22:07:46.619Z,8.32
2023-02-08T22:10:15.338Z,9.85
2023-02-08T22:12:42.037Z,9.50
2023-02-08T22:15:11.666Z,8.07
2023-02-08T22:17:38.297Z,12.25
2023-02-08T22:20:05.656Z,9.85
2023-02-08T22:22:32.089Z,5.90
2023-02-08T22:24:58.475Z,10.90
2023-02-08T22:27:25.059Z,7.03
2023-02-08T22:29:51.486Z,6.70
2023-02-08T22:32:17.957Z,8.15
2023-02-08T22:34:45.542Z,8.55
2023-02-08T22:37:12.989Z,6.22
2023-02-08T22:39:39.473Z,8.10
2023-02-08T22:42:13.469Z,11.10
2023-02-08T22:44:42.272Z,8.48
2023-02-08T22:47:10.484Z,9.93
2023-02-08T22:49:38.168Z,8.02
2023-02-08T22:52:06.249Z,9.25
2023-02-08T22:54:33.429Z,8.07
2023-02-08T22:56:59.945Z,11.10
2023-02-08T22:59:26.550Z,8.52
2023-02-08T23:01:53.152Z,7.82
2023-02-08T23:04:19.633Z,7.57
2023-02-08T23:06:46.978Z,10.10
2023-02-08T23:09:13.819Z,7.68
2023-02-08T23:11:40.278Z,9.70
2023-02-08T23:15:03.187Z,6.63
2023-02-08T23:17:30.654Z,12.35
2023-02-08T23:19:57.110Z,8.82
2023-02-08T23:22:23.495Z,11.25
2023-02-08T23:24:49.897Z,6.95
2023-02-08T23:27:25.428Z,7.93
2023-02-08T23:29:51.859Z,8.57
2023-02-08T23:32:18.278Z,9.40
2023-02-08T23:34:44.793Z,7.20
2023-02-08T23:37:11.209Z,7.55
2023-02-08T23:39:37.604Z,9.13
2023-02-08T23:42:04.273Z,6.60
2023-02-08T23:44:30.720Z,8.30
2023-02-08T23:46:57.200Z,9.90
2023-02-08T23:49:23.652Z,10.45
2023-02-08T23:51:50.062Z,9.95
2023-02-08T23:54:16.467Z,8.68
2023-02-08T23:56:42.911Z,13.07
2023-02-08T23:59:10.643Z,11.50
